createdAt,value
2018-08-06T00:00:27.873Z,73.85
2018-08-06T00:02:56.555Z,73.86
2018-08-06T00:05:25.469Z,73.55
2018-08-06T00:07:54.178Z,73.42
2018-08-06T00:10:24.041Z,72.98
2018-08-06T00:12:52.764Z,73.14
2018-08-06T00:15:21.514Z,72.88
2018-08-06T00:17:50.312Z,73.27
2018-08-06T00:20:19.039Z,72.98
2018-08-06T00:22:47.727Z,72.97
2018-08-06T00:25:17.210Z,72.89
2018-08-06T00:27:46.179Z,72.98
2018-08-06T00:30:16.586Z,72.78
2018-08-06T00:44:19.241Z,72.57
2018-08-06T00:46:47.948Z,72.40
2018-08-06T00:49:17.132Z,72.92
2018-08-06T00:51:45.877Z,72.56
2018-08-06T00:54:14.584Z,72.98
2018-08-06T00:56:43.405Z,73.18
2018-08-06T00:59:12.167Z,73.35
2018-08-06T01:01:41.064Z,73.10
2018-08-06T01:04:09.829Z,73.30
2018-08-06T01:06:38.460Z,73.26
2018-08-06T01:09:08.918Z,73.13
2018-08-06T01:11:37.876Z,73.43
2018-08-06T01:14:06.647Z,73.58
2018-08-06T01:16:35.407Z,74.08
2018-08-06T01:19:04.146Z,74.20
2018-08-06T01:21:32.856Z,73.69
2018-08-06T01:24:02.101Z,73.92
2018-08-06T01:26:30.793Z,73.46
2018-08-06T01:28:59.548Z,73.61
2018-08-06T01:31:28.265Z,73.69
2018-08-06T01:33:57.004Z,73.57
2018-08-06T01:36:25.923Z,73.94
2018-08-06T01:38:54.594Z,73.69
2018-08-06T01:41:23.386Z,73.75
2018-08-06T01:43:52.103Z,73.43
2018-08-06T01:46:20.888Z,73.75
2018-08-06T01:48:49.602Z,74.17
2018-08-06T01:51:18.302Z,74.27
2018-08-06T01:53:47.016Z,74.14
2018-08-06T01:56:15.775Z,74.10
2018-08-06T01:58:44.434Z,73.95
2018-08-06T02:01:13.132Z,74.25
2018-08-06T02:03:41.856Z,73.67
2018-08-06T02:06:10.572Z,73.88
2018-08-06T02:08:39.260Z,74.23
2018-08-06T02:11:07.951Z,74.24
2018-08-06T02:13:36.692Z,74.05
2018-08-06T02:16:05.579Z,74.07
2018-08-06T02:18:34.279Z,73.93
2018-08-06T02:21:03.098Z,73.97
2018-08-06T02:23:31.909Z,74.11
2018-08-06T02:26:00.602Z,74.30
2018-08-06T02:28:29.255Z,74.65
2018-08-06T02:30:57.923Z,75.40
2018-08-06T02:33:26.607Z,74.72
2018-08-06T02:35:55.312Z,75.09
2018-08-06T02:38:23.984Z,74.57
2018-08-06T02:40:52.734Z,74.58
2018-08-06T02:43:21.387Z,74.80
2018-08-06T02:45:50.045Z,74.78
2018-08-06T02:48:18.746Z,74.72
2018-08-06T02:50:47.458Z,74.65
2018-08-06T02:53:16.167Z,74.77
2018-08-06T02:55:44.951Z,74.50
2018-08-06T02:58:13.603Z,74.60
2018-08-06T03:00:42.288Z,74.36
2018-08-06T03:03:10.989Z,74.65
2018-08-06T03:05:39.674Z,74.56
2018-08-06T03:08:08.354Z,74.73
2018-08-06T03:10:37.060Z,74.51
2018-08-06T03:13:05.732Z,74.82
2018-08-06T03:15:34.407Z,74.80
2018-08-06T03:18:03.123Z,74.97
2018-08-06T03:20:31.839Z,75.05
2018-08-06T03:23:00.648Z,74.87
2018-08-06T03:25:29.347Z,74.94
2018-08-06T03:27:58.047Z,75.59
2018-08-06T03:30:26.733Z,75.02
2018-08-06T03:32:55.670Z,74.94
2018-08-06T03:35:24.381Z,74.98
2018-08-06T03:37:53.121Z,75.11
2018-08-06T03:40:21.843Z,74.97
2018-08-06T03:42:50.529Z,75.25
2018-08-06T03:45:19.200Z,75.26
2018-08-06T03:47:47.944Z,75.25
2018-08-06T03:50:16.600Z,74.99
2018-08-06T03:52:45.338Z,74.92
2018-08-06T03:55:13.969Z,74.75
2018-08-06T03:57:42.700Z,75.11
2018-08-06T04:00:12.904Z,74.22
2018-08-06T04:02:42.223Z,74.30
2018-08-06T04:05:12.011Z,74.13
2018-08-06T04:07:40.947Z,74.54
2018-08-06T04:10:11.169Z,74.28
2018-08-06T04:12:39.932Z,74.05
2018-08-06T04:15:09.624Z,73.97
2018-08-06T04:17:38.556Z,73.69
2018-08-06T04:20:08.012Z,74.03
2018-08-06T04:22:36.743Z,73.17
2018-08-06T04:25:05.662Z,73.36
2018-08-06T04:27:34.325Z,73.61
2018-08-06T04:30:03.056Z,73.60
2018-08-06T04:32:31.821Z,73.75
2018-08-06T04:35:00.540Z,73.33
2018-08-06T04:37:29.304Z,73.27
2018-08-06T04:39:57.989Z,73.02
2018-08-06T04:42:26.719Z,72.99
2018-08-06T04:44:55.372Z,73.29
2018-08-06T04:47:24.088Z,73.31
2018-08-06T04:49:52.784Z,73.31
2018-08-06T04:52:21.501Z,73.16
2018-08-06T04:54:50.253Z,73.26
2018-08-06T04:57:19.009Z,73.20
2018-08-06T04:59:47.797Z,73.56
2018-08-06T05:02:16.468Z,73.49
2018-08-06T05:04:45.206Z,72.79
2018-08-06T05:07:13.914Z,73.67
2018-08-06T05:09:43.883Z,73.14
2018-08-06T05:12:12.611Z,72.46
2018-08-06T05:14:41.623Z,72.58
2018-08-06T05:17:10.369Z,72.49
2018-08-06T05:19:39.020Z,72.40
2018-08-06T05:22:07.798Z,72.43
2018-08-06T05:24:36.536Z,72.97
2018-08-06T05:27:05.281Z,72.71
2018-08-06T05:29:34.075Z,72.99
2018-08-06T05:32:02.914Z,72.70
2018-08-06T05:34:31.635Z,72.91
2018-08-06T05:37:00.423Z,73.03
2018-08-06T05:39:29.210Z,72.08
2018-08-06T05:41:58.054Z,73.17
2018-08-06T05:44:26.786Z,73.91
2018-08-06T05:46:55.517Z,72.94
2018-08-06T05:49:24.257Z,72.37
2018-08-06T05:51:53.014Z,72.03
2018-08-06T05:54:21.713Z,72.01
2018-08-06T05:56:50.422Z,71.09
2018-08-06T05:59:19.113Z,70.75
2018-08-06T06:01:47.832Z,70.89
2018-08-06T06:04:16.562Z,70.64
2018-08-06T06:06:45.306Z,72.61
2018-08-06T06:09:14.106Z,69.62
2018-08-06T06:11:42.832Z,69.95
2018-08-06T06:14:11.625Z,69.70
2018-08-06T06:16:40.503Z,69.28
2018-08-06T06:19:09.307Z,69.76
2018-08-06T06:21:38.125Z,69.11
2018-08-06T06:24:06.984Z,67.96
2018-08-06T06:26:35.652Z,68.53
2018-08-06T06:29:04.391Z,67.14
2018-08-06T06:31:33.092Z,67.74
2018-08-06T06:34:01.866Z,67.09
2018-08-06T06:36:30.539Z,66.56
2018-08-06T06:38:59.329Z,66.08
2018-08-06T06:41:28.170Z,66.61
2018-08-06T06:43:56.947Z,66.38
2018-08-06T06:46:25.692Z,65.85
2018-08-06T06:48:54.547Z,65.67
2018-08-06T06:51:23.151Z,65.29
2018-08-06T06:53:51.944Z,64.81
2018-08-06T06:56:20.615Z,64.59
2018-08-06T06:58:49.324Z,64.64
2018-08-06T07:01:18.184Z,65.14
2018-08-06T07:03:47.122Z,64.13
2018-08-06T07:06:16.021Z,64.30
2018-08-06T07:08:44.781Z,63.31
2018-08-06T07:11:13.463Z,63.00
2018-08-06T07:13:42.331Z,62.47
2018-08-06T07:16:11.004Z,61.53
2018-08-06T07:18:39.647Z,61.76
2018-08-06T07:21:08.336Z,61.95
2018-08-06T07:23:37.147Z,61.03
2018-08-06T07:26:05.959Z,59.44
2018-08-06T07:28:34.681Z,59.46
2018-08-06T07:31:03.379Z,58.97
2018-08-06T07:33:32.075Z,58.52
2018-08-06T07:36:00.795Z,58.83
2018-08-06T07:38:29.483Z,58.62
2018-08-06T07:40:58.225Z,57.97
2018-08-06T07:43:26.972Z,58.14
2018-08-06T07:45:55.991Z,57.98
2018-08-06T07:48:24.668Z,56.18
2018-08-06T07:50:53.379Z,54.89
2018-08-06T07:53:22.626Z,53.75
2018-08-06T07:55:51.372Z,53.58
2018-08-06T07:58:20.121Z,53.08
2018-08-06T08:00:49.019Z,53.19
2018-08-06T08:03:17.838Z,52.87
2018-08-06T08:05:46.539Z,54.59
2018-08-06T08:08:15.359Z,51.96
2018-08-06T08:10:44.752Z,50.80
2018-08-06T08:13:13.495Z,50.76
2018-08-06T08:15:42.288Z,49.00
2018-08-06T08:18:11.152Z,47.99
2018-08-06T08:20:40.458Z,48.30
2018-08-06T08:23:09.342Z,48.23
2018-08-06T08:25:38.479Z,47.61
2018-08-06T08:28:07.396Z,47.81
2018-08-06T08:30:36.324Z,50.66
2018-08-06T08:33:05.340Z,50.83
2018-08-06T08:35:34.145Z,49.20
2018-08-06T08:38:02.914Z,48.22
2018-08-06T08:40:31.600Z,48.62
2018-08-06T08:43:00.284Z,48.23
2018-08-06T08:45:29.001Z,46.94
2018-08-06T08:47:57.660Z,45.94
2018-08-06T08:50:26.651Z,45.53
2018-08-06T08:52:55.311Z,45.49
2018-08-06T08:55:24.008Z,44.96
2018-08-06T08:57:52.806Z,44.30
2018-08-06T09:00:22.677Z,45.05
2018-08-06T09:02:52.394Z,44.30
2018-08-06T09:05:21.318Z,44.24
2018-08-06T09:07:50.629Z,44.53
2018-08-06T09:10:19.703Z,42.34
2018-08-06T09:12:48.670Z,41.82
2018-08-06T09:15:21.611Z,40.70
2018-08-06T09:17:50.364Z,42.50
2018-08-06T09:20:19.051Z,41.79
2018-08-06T09:22:47.994Z,42.81
2018-08-06T09:25:16.838Z,41.60
2018-08-06T09:27:47.103Z,41.15
2018-08-06T09:30:22.325Z,41.42
2018-08-06T09:32:52.507Z,41.64
2018-08-06T09:35:21.448Z,40.38
2018-08-06T09:37:50.348Z,39.34
2018-08-06T09:40:20.262Z,40.10
2018-08-06T09:42:49.455Z,38.38
2018-08-06T09:45:19.250Z,38.60
2018-08-06T09:47:49.156Z,39.68
2018-08-06T09:50:18.794Z,39.21
2018-08-06T09:52:48.369Z,39.76
2018-08-06T09:55:22.449Z,39.83
2018-08-06T09:57:51.452Z,39.59
2018-08-06T10:00:26.210Z,36.55
2018-08-06T10:02:56.148Z,38.00
2018-08-06T10:05:25.573Z,38.35
2018-08-06T10:07:54.392Z,37.67
2018-08-06T10:10:23.284Z,37.03
2018-08-06T10:12:52.067Z,37.32
2018-08-06T10:15:21.397Z,36.06
2018-08-06T10:17:51.690Z,34.07
2018-08-06T10:20:21.665Z,34.26
2018-08-06T10:22:50.420Z,34.84
2018-08-06T10:25:19.159Z,35.39
2018-08-06T10:27:48.339Z,35.87
2018-08-06T10:30:20.184Z,35.97
2018-08-06T10:32:48.871Z,35.87
2018-08-06T10:35:18.307Z,35.65
2018-08-06T10:37:47.180Z,34.86
2018-08-06T10:40:20.946Z,36.26
2018-08-06T10:42:49.630Z,36.51
2018-08-06T10:45:19.462Z,37.06
2018-08-06T10:47:48.609Z,35.85
2018-08-06T10:50:17.376Z,36.64
2018-08-06T10:52:46.065Z,36.45
2018-08-06T10:55:14.866Z,36.66
2018-08-06T10:57:44.343Z,35.97
2018-08-06T11:00:15.229Z,35.36
2018-08-06T11:02:44.244Z,35.01
2018-08-06T11:05:13.895Z,34.65
2018-08-06T11:07:42.640Z,34.75
2018-08-06T11:10:13.123Z,35.03
2018-08-06T11:12:41.859Z,35.90
2018-08-06T11:15:13.767Z,37.09
2018-08-06T11:17:42.480Z,35.99
2018-08-06T11:20:13.151Z,37.29
2018-08-06T11:22:41.978Z,37.35
2018-08-06T11:25:12.107Z,37.63
2018-08-06T11:27:40.999Z,36.78
2018-08-06T11:30:11.649Z,37.34
2018-08-06T11:32:40.375Z,36.02
2018-08-06T11:35:09.922Z,35.38
2018-08-06T11:37:38.846Z,35.84
2018-08-06T11:40:08.931Z,36.63
2018-08-06T11:42:38.389Z,36.61
2018-08-06T11:45:08.649Z,38.46
2018-08-06T11:47:37.331Z,38.34
2018-08-06T11:50:06.430Z,38.34
2018-08-06T11:52:35.108Z,37.55
2018-08-06T11:55:03.960Z,38.13
2018-08-06T11:57:32.708Z,38.11
2018-08-06T12:00:01.624Z,37.21
2018-08-06T12:02:30.589Z,35.96
2018-08-06T12:04:59.719Z,36.50
2018-08-06T12:07:28.379Z,37.23
2018-08-06T12:09:57.115Z,36.72
2018-08-06T12:12:25.888Z,35.72
2018-08-06T12:14:54.638Z,35.73
2018-08-06T12:17:23.354Z,36.64
2018-08-06T12:19:52.059Z,36.10
2018-08-06T12:22:20.833Z,35.11
2018-08-06T12:24:49.521Z,33.05
2018-08-06T12:27:18.322Z,31.69
2018-08-06T12:29:47.027Z,30.42
2018-08-06T12:32:15.920Z,30.47
2018-08-06T12:34:44.696Z,28.83
2018-08-06T12:37:13.353Z,27.73
2018-08-06T12:39:42.042Z,29.16
2018-08-06T12:42:10.766Z,31.28
2018-08-06T12:44:39.488Z,31.26
2018-08-06T12:47:08.137Z,30.07
2018-08-06T12:49:36.857Z,27.76
2018-08-06T12:52:05.714Z,27.14
2018-08-06T12:54:34.463Z,26.22
2018-08-06T12:57:03.262Z,26.47
2018-08-06T12:59:32.120Z,28.24
2018-08-06T13:02:00.824Z,27.64
2018-08-06T13:04:29.584Z,27.37
2018-08-06T13:06:58.306Z,27.70
2018-08-06T13:09:27.051Z,26.74
2018-08-06T13:11:55.768Z,26.53
2018-08-06T13:14:24.592Z,27.30
2018-08-06T13:16:53.328Z,27.05
2018-08-06T13:19:22.039Z,27.07
2018-08-06T13:21:50.781Z,27.02
2018-08-06T13:24:19.479Z,28.06
2018-08-06T13:26:48.206Z,27.72
2018-08-06T13:29:16.867Z,27.78
2018-08-06T13:31:45.583Z,27.25
2018-08-06T13:34:14.304Z,28.17
2018-08-06T13:36:43.267Z,28.24
2018-08-06T13:39:12.104Z,27.74
2018-08-06T13:41:40.769Z,27.46
2018-08-06T13:44:09.551Z,26.99
2018-08-06T13:46:38.366Z,27.76
2018-08-06T13:49:07.081Z,27.29
2018-08-06T13:51:35.882Z,26.87
2018-08-06T13:54:05.592Z,27.40
2018-08-06T13:56:34.540Z,27.37
2018-08-06T13:59:03.520Z,27.36
2018-08-06T14:01:32.359Z,26.44
2018-08-06T14:04:01.039Z,25.41
2018-08-06T14:06:29.710Z,25.47
2018-08-06T14:08:58.672Z,25.80
2018-08-06T14:11:27.318Z,25.26
2018-08-06T14:13:56.900Z,26.28
2018-08-06T14:16:25.709Z,25.66
2018-08-06T14:18:54.646Z,26.57
2018-08-06T14:21:23.324Z,25.75
2018-08-06T14:23:52.845Z,25.97
2018-08-06T14:26:21.540Z,25.90
2018-08-06T14:28:54.056Z,25.38
2018-08-06T14:31:22.977Z,25.31
2018-08-06T14:33:52.003Z,25.56
2018-08-06T14:36:21.644Z,26.57
2018-08-06T14:38:51.131Z,26.67
2018-08-06T14:41:19.815Z,25.23
2018-08-06T14:43:48.688Z,24.48
2018-08-06T14:46:17.388Z,24.50
2018-08-06T14:48:46.258Z,25.79
2018-08-06T14:51:15.093Z,25.95
2018-08-06T14:53:43.754Z,25.96
2018-08-06T14:56:12.560Z,26.18
2018-08-06T14:58:41.395Z,25.99
2018-08-06T15:01:10.262Z,26.66
2018-08-06T15:03:39.003Z,26.80
2018-08-06T15:06:07.718Z,26.72
2018-08-06T15:08:36.831Z,26.29
2018-08-06T15:11:05.645Z,26.44
2018-08-06T15:13:36.393Z,26.57
2018-08-06T15:16:05.039Z,25.63
2018-08-06T15:18:33.746Z,25.71
2018-08-06T15:21:02.392Z,25.99
2018-08-06T15:23:31.159Z,26.96
2018-08-06T15:25:59.949Z,25.47
2018-08-06T15:28:28.680Z,25.83
2018-08-06T15:30:57.467Z,26.18
2018-08-06T15:33:26.187Z,26.66
2018-08-06T15:35:55.014Z,27.37
2018-08-06T15:38:24.425Z,28.00
2018-08-06T15:40:53.164Z,27.73
2018-08-06T15:43:23.018Z,27.21
2018-08-06T15:45:51.716Z,27.21
2018-08-06T15:48:20.599Z,26.78
2018-08-06T15:50:49.360Z,27.50
2018-08-06T15:53:18.073Z,27.76
2018-08-06T15:55:47.133Z,25.67
2018-08-06T15:58:15.828Z,25.57
2018-08-06T16:00:44.644Z,25.53
2018-08-06T16:03:13.438Z,26.21
2018-08-06T16:05:42.477Z,26.06
2018-08-06T16:08:11.197Z,26.07
2018-08-06T16:10:39.877Z,27.27
2018-08-06T16:13:08.521Z,27.18
2018-08-06T16:15:37.175Z,26.70
2018-08-06T16:18:05.920Z,27.11
2018-08-06T16:20:34.598Z,27.42
2018-08-06T16:23:03.447Z,27.35
2018-08-06T16:25:32.397Z,27.18
2018-08-06T16:28:02.109Z,27.32
2018-08-06T16:30:30.781Z,27.20
2018-08-06T16:32:59.475Z,27.15
2018-08-06T16:35:28.165Z,27.93
2018-08-06T16:37:57.297Z,29.66
2018-08-06T16:40:26.037Z,30.46
2018-08-06T16:42:54.828Z,30.29
2018-08-06T16:45:23.918Z,30.40
2018-08-06T16:47:52.668Z,30.67
2018-08-06T16:50:21.545Z,30.79
2018-08-06T16:52:50.601Z,30.57
2018-08-06T16:55:19.671Z,30.91
2018-08-06T16:57:48.654Z,31.32
2018-08-06T17:00:19.841Z,30.95
2018-08-06T17:02:49.839Z,30.63
2018-08-06T17:05:18.602Z,31.32
2018-08-06T17:07:48.112Z,30.63
2018-08-06T17:10:17.973Z,30.65
2018-08-06T17:12:47.978Z,30.40
2018-08-06T17:15:18.138Z,30.56
2018-08-06T17:17:47.597Z,30.09
2018-08-06T17:20:17.937Z,30.55
2018-08-06T17:22:47.834Z,30.46
2018-08-06T17:25:16.553Z,30.53
2018-08-06T17:27:45.342Z,30.59
2018-08-06T17:30:14.916Z,30.85
2018-08-06T17:32:43.615Z,30.32
2018-08-06T17:35:15.145Z,30.30
2018-08-06T17:37:43.909Z,29.76
2018-08-06T17:40:14.709Z,29.84
2018-08-06T17:42:43.478Z,29.71
2018-08-06T17:45:14.822Z,29.93
2018-08-06T17:47:43.834Z,29.93
2018-08-06T17:50:15.245Z,30.23
2018-08-06T17:52:44.869Z,30.27
2018-08-06T17:55:13.913Z,30.40
2018-08-06T17:57:42.613Z,31.18
2018-08-06T18:00:12.146Z,31.47
2018-08-06T18:02:41.615Z,32.09
2018-08-06T18:05:13.755Z,35.23
2018-08-06T18:07:43.215Z,36.48
2018-08-06T18:10:13.588Z,37.64
2018-08-06T18:12:43.055Z,37.90
2018-08-06T18:15:11.800Z,38.83
2018-08-06T18:17:40.765Z,39.02
2018-08-06T18:20:12.121Z,39.73
2018-08-06T18:22:41.036Z,40.25
2018-08-06T18:25:11.602Z,40.90
2018-08-06T18:27:41.015Z,41.87
2018-08-06T18:30:13.300Z,42.29
2018-08-06T18:32:57.777Z,41.95
2018-08-06T18:35:30.689Z,42.29
2018-08-06T18:37:59.342Z,42.08
2018-08-06T18:40:28.504Z,42.58
2018-08-06T18:42:57.221Z,42.97
2018-08-06T18:45:25.935Z,43.24
2018-08-06T18:47:54.756Z,43.50
2018-08-06T18:50:23.515Z,43.39
2018-08-06T18:52:52.171Z,43.37
2018-08-06T18:55:20.878Z,43.73
2018-08-06T18:57:49.864Z,43.66
2018-08-06T19:00:20.474Z,43.44
2018-08-06T19:02:49.636Z,43.35
2018-08-06T19:05:18.421Z,43.71
2018-08-06T19:07:47.194Z,43.96
2018-08-06T19:10:15.877Z,44.00
2018-08-06T19:12:50.006Z,44.08
2018-08-06T19:15:18.719Z,43.37
2018-08-06T19:17:52.808Z,43.18
2018-08-06T19:20:21.606Z,43.04
2018-08-06T19:22:50.338Z,44.17
2018-08-06T19:25:24.250Z,44.17
2018-08-06T19:27:53.008Z,43.96
2018-08-06T19:30:22.476Z,44.27
2018-08-06T19:32:51.299Z,44.59
2018-08-06T19:35:20.006Z,44.40
2018-08-06T19:37:53.074Z,45.06
2018-08-06T19:40:21.887Z,45.37
2018-08-06T19:42:55.981Z,45.88
2018-08-06T19:45:24.896Z,46.27
2018-08-06T19:47:53.573Z,47.05
2018-08-06T19:50:27.604Z,46.93
2018-08-06T19:52:56.347Z,47.21
2018-08-06T19:55:30.308Z,46.54
2018-08-06T19:57:59.134Z,46.56
2018-08-06T20:00:27.936Z,47.21
2018-08-06T20:02:56.708Z,47.71
2018-08-06T20:05:25.554Z,48.23
2018-08-06T20:07:54.390Z,48.10
2018-08-06T20:10:23.290Z,48.64
2018-08-06T20:12:52.088Z,48.25
2018-08-06T20:15:20.857Z,48.97
2018-08-06T20:17:50.156Z,49.07
2018-08-06T20:20:19.404Z,49.38
2018-08-06T20:22:49.651Z,49.10
2018-08-06T20:25:20.298Z,49.52
2018-08-06T20:27:49.895Z,49.42
2018-08-06T20:30:21.083Z,49.91
2018-08-06T20:32:50.543Z,50.25
2018-08-06T20:35:20.832Z,50.48
2018-08-06T20:37:50.687Z,51.08
2018-08-06T20:40:19.979Z,50.69
2018-08-06T20:42:48.855Z,50.63
2018-08-06T20:45:20.970Z,50.87
2018-08-06T20:47:50.320Z,51.16
2018-08-06T20:50:22.508Z,51.00
2018-08-06T20:52:54.062Z,50.96
2018-08-06T20:55:23.763Z,51.29
2018-08-06T20:57:52.695Z,51.53
2018-08-06T21:00:26.066Z,51.94
2018-08-06T21:02:55.094Z,51.99
2018-08-06T21:05:24.949Z,51.80
2018-08-06T21:07:53.852Z,52.05
2018-08-06T21:10:23.364Z,52.44
2018-08-06T21:12:52.215Z,52.14
2018-08-06T21:15:21.386Z,52.71
2018-08-06T21:17:50.379Z,52.61
2018-08-06T21:20:20.167Z,52.83
2018-08-06T21:22:49.595Z,52.96
2018-08-06T21:25:18.595Z,53.24
2018-08-06T21:27:48.696Z,53.28
2018-08-06T21:30:19.907Z,53.66
2018-08-06T21:32:50.706Z,53.81
2018-08-06T21:35:21.067Z,53.83
2018-08-06T21:37:51.256Z,54.40
2018-08-06T21:40:20.681Z,54.66
2018-08-06T21:42:49.940Z,54.95
2018-08-06T21:45:19.201Z,55.05
2018-08-06T21:47:48.128Z,55.54
2018-08-06T21:50:17.060Z,55.85
2018-08-06T21:52:46.161Z,56.19
2018-08-06T21:55:15.511Z,56.31
2018-08-06T21:57:46.308Z,56.52
2018-08-06T22:00:25.751Z,56.51
2018-08-06T22:02:54.522Z,56.60
2018-08-06T22:05:23.289Z,56.69
2018-08-06T22:07:52.007Z,56.76
2018-08-06T22:10:20.784Z,56.97
2018-08-06T22:12:49.604Z,56.98
2018-08-06T22:15:18.667Z,57.24
2018-08-06T22:17:47.397Z,57.40
2018-08-06T22:20:16.129Z,57.22
2018-08-06T22:22:44.883Z,56.95
2018-08-06T22:25:13.591Z,57.13
2018-08-06T22:27:42.287Z,56.92
2018-08-06T22:30:11.656Z,57.30
2018-08-06T22:32:40.461Z,57.15
2018-08-06T22:35:11.235Z,57.26
2018-08-06T22:37:40.434Z,57.04
2018-08-06T22:40:10.795Z,57.33
2018-08-06T22:42:39.924Z,57.32
2018-08-06T22:45:09.941Z,56.76
2018-08-06T22:47:40.137Z,57.13
2018-08-06T22:50:11.150Z,56.93
2018-08-06T22:52:40.487Z,57.18
2018-08-06T22:55:10.289Z,57.40
2018-08-06T22:57:39.058Z,57.64
2018-08-06T23:00:09.848Z,57.95
2018-08-06T23:02:38.484Z,57.99
2018-08-06T23:05:07.827Z,58.08
2018-08-06T23:07:36.979Z,58.35
2018-08-06T23:10:09.391Z,58.66
2018-08-06T23:12:38.167Z,58.56
2018-08-06T23:15:08.995Z,58.53
2018-08-06T23:17:37.825Z,58.38
2018-08-06T23:20:07.303Z,58.57
2018-08-06T23:22:36.032Z,58.61
2018-08-06T23:25:05.410Z,58.82
2018-08-06T23:27:34.203Z,58.80
2018-08-06T23:30:02.985Z,59.01
2018-08-06T23:32:31.731Z,59.46
2018-08-06T23:35:00.484Z,59.78
2018-08-06T23:37:29.399Z,60.19
2018-08-06T23:39:58.189Z,60.26
2018-08-06T23:42:27.000Z,60.38
2018-08-06T23:44:55.710Z,60.54
2018-08-06T23:47:24.513Z,60.91
2018-08-06T23:49:53.214Z,61.28
2018-08-06T23:52:21.973Z,61.71
2018-08-06T23:54:50.652Z,61.60
2018-08-06T23:57:19.497Z,61.80
2018-08-06T23:59:48.350Z,61.82
